Terminal Aerodrome Forecast
Issued by NWS Portland, OR

Home | Current Version | Previous Version | Text Only | Print | Product List | Glossary On
Versions: 1 2 3 4 5 6 7 8 9 10 11 12 13 14 15 16 17 18 19 20 21 22
000
FTUS46 KPQR 211328 AAA
TAFEUG
TAF AMD
KEUG 211328Z 2113/2212 17004KT P6SM -RA SCT007 BKN060 OVC100
      TEMPO 2114/2118 BKN025
     FM211800 18010KT P6SM -RA SCT040 OVC070
     FM212200 18009KT P6SM -SHRA SCT035 BKN060 OVC100
     FM220900 16005KT P6SM -RA SCT035 OVC050=

USA.gov is the U.S. government's official web portal to all federal, state and local government web resources and services.